sensor_id;sensor_type;location;lat;lon;timestamp;temperature;humidity
80290;SHT30;69592;44.804;-0.550;2024-01-27T00:01:35;12.50;97.98
80290;SHT30;69592;44.804;-0.550;2024-01-27T00:04:01;12.51;98.13
80290;SHT30;69592;44.804;-0.550;2024-01-27T00:06:26;12.50;98.15
80290;SHT30;69592;44.804;-0.550;2024-01-27T00:08:51;12.51;98.08
80290;SHT30;69592;44.804;-0.550;2024-01-27T00:11:17;12.58;98.12
80290;SHT30;69592;44.804;-0.550;2024-01-27T00:13:42;12.61;98.03
80290;SHT30;69592;44.804;-0.550;2024-01-27T00:16:09;12.60;98.07
80290;SHT30;69592;44.804;-0.550;2024-01-27T00:18:38;12.63;98.04
80290;SHT30;69592;44.804;-0.550;2024-01-27T00:21:05;12.64;97.97
80290;SHT30;69592;44.804;-0.550;2024-01-27T00:23:31;12.64;97.91
80290;SHT30;69592;44.804;-0.550;2024-01-27T00:25:57;12.65;97.94
80290;SHT30;69592;44.804;-0.550;2024-01-27T00:28:22;12.63;97.86
80290;SHT30;69592;44.804;-0.550;2024-01-27T00:30:48;12.57;97.98
80290;SHT30;69592;44.804;-0.550;2024-01-27T00:33:14;12.58;97.97
80290;SHT30;69592;44.804;-0.550;2024-01-27T00:35:39;12.57;97.92
80290;SHT30;69592;44.804;-0.550;2024-01-27T00:38:05;12.63;98.01
80290;SHT30;69592;44.804;-0.550;2024-01-27T00:40:30;12.67;97.90
80290;SHT30;69592;44.804;-0.550;2024-01-27T00:42:56;12.54;97.96
80290;SHT30;69592;44.804;-0.550;2024-01-27T00:45:21;12.60;97.93
80290;SHT30;69592;44.804;-0.550;2024-01-27T00:47:50;12.57;97.88
80290;SHT30;69592;44.804;-0.550;2024-01-27T00:50:16;12.61;97.86
80290;SHT30;69592;44.804;-0.550;2024-01-27T00:52:41;12.57;97.83
80290;SHT30;69592;44.804;-0.550;2024-01-27T00:55:07;12.58;97.83
80290;SHT30;69592;44.804;-0.550;2024-01-27T00:57:32;12.64;97.77
80290;SHT30;69592;44.804;-0.550;2024-01-27T00:59:58;12.61;97.85
80290;SHT30;69592;44.804;-0.550;2024-01-27T01:02:23;12.60;97.76
80290;SHT30;69592;44.804;-0.550;2024-01-27T01:04:49;12.60;97.60
80290;SHT30;69592;44.804;-0.550;2024-01-27T01:07:15;12.63;97.66
80290;SHT30;69592;44.804;-0.550;2024-01-27T01:09:40;12.63;97.68
80290;SHT30;69592;44.804;-0.550;2024-01-27T01:12:05;12.64;97.70
80290;SHT30;69592;44.804;-0.550;2024-01-27T01:14:31;12.63;97.82
80290;SHT30;69592;44.804;-0.550;2024-01-27T01:16:56;12.65;97.80
80290;SHT30;69592;44.804;-0.550;2024-01-27T01:19:22;12.64;97.63
80290;SHT30;69592;44.804;-0.550;2024-01-27T01:21:47;12.63;97.62
80290;SHT30;69592;44.804;-0.550;2024-01-27T01:24:12;12.63;97.65
80290;SHT30;69592;44.804;-0.550;2024-01-27T01:26:38;12.55;97.69
80290;SHT30;69592;44.804;-0.550;2024-01-27T01:29:03;12.61;97.61
80290;SHT30;69592;44.804;-0.550;2024-01-27T01:31:28;12.63;97.49
80290;SHT30;69592;44.804;-0.550;2024-01-27T01:33:54;12.58;97.62
80290;SHT30;69592;44.804;-0.550;2024-01-27T01:36:19;12.60;97.59
80290;SHT30;69592;44.804;-0.550;2024-01-27T01:38:45;12.64;97.52
80290;SHT30;69592;44.804;-0.550;2024-01-27T01:41:11;12.69;97.49
80290;SHT30;69592;44.804;-0.550;2024-01-27T01:43:36;12.69;97.57
80290;SHT30;69592;44.804;-0.550;2024-01-27T01:46:02;12.68;97.41
80290;SHT30;69592;44.804;-0.550;2024-01-27T01:48:28;12.67;97.46
80290;SHT30;69592;44.804;-0.550;2024-01-27T01:50:54;12.68;97.51
80290;SHT30;69592;44.804;-0.550;2024-01-27T01:53:20;12.64;97.57
80290;SHT30;69592;44.804;-0.550;2024-01-27T01:55:46;12.68;97.49
80290;SHT30;69592;44.804;-0.550;2024-01-27T01:58:11;12.60;97.48
80290;SHT30;69592;44.804;-0.550;2024-01-27T02:00:37;12.54;97.76
80290;SHT30;69592;44.804;-0.550;2024-01-27T02:03:02;12.55;97.87
80290;SHT30;69592;44.804;-0.550;2024-01-27T02:05:28;12.51;97.90
80290;SHT30;69592;44.804;-0.550;2024-01-27T02:07:53;12.48;97.84
80290;SHT30;69592;44.804;-0.550;2024-01-27T02:10:21;12.54;97.83
80290;SHT30;69592;44.804;-0.550;2024-01-27T02:12:46;12.58;97.69
80290;SHT30;69592;44.804;-0.550;2024-01-27T02:15:13;12.61;97.60
80290;SHT30;69592;44.804;-0.550;2024-01-27T02:17:39;12.60;97.68
80290;SHT30;69592;44.804;-0.550;2024-01-27T02:20:05;12.54;97.52
80290;SHT30;69592;44.804;-0.550;2024-01-27T02:22:32;12.51;97.75
80290;SHT30;69592;44.804;-0.550;2024-01-27T02:24:58;12.54;97.65
80290;SHT30;69592;44.804;-0.550;2024-01-27T02:27:23;12.58;97.63
80290;SHT30;69592;44.804;-0.550;2024-01-27T02:29:49;12.54;97.47
80290;SHT30;69592;44.804;-0.550;2024-01-27T02:32:14;12.51;97.61
80290;SHT30;69592;44.804;-0.550;2024-01-27T02:34:39;12.48;97.66
80290;SHT30;69592;44.804;-0.550;2024-01-27T02:37:05;12.50;97.69
80290;SHT30;69592;44.804;-0.550;2024-01-27T02:39:31;12.50;97.66
80290;SHT30;69592;44.804;-0.550;2024-01-27T02:41:56;12.37;97.73
80290;SHT30;69592;44.804;-0.550;2024-01-27T02:44:21;12.41;97.68
80290;SHT30;69592;44.804;-0.550;2024-01-27T02:46:47;12.44;97.69
80290;SHT30;69592;44.804;-0.550;2024-01-27T02:49:12;12.43;97.79
80290;SHT30;69592;44.804;-0.550;2024-01-27T02:51:38;12.41;97.71
80290;SHT30;69592;44.804;-0.550;2024-01-27T02:54:03;12.38;97.66
80290;SHT30;69592;44.804;-0.550;2024-01-27T02:56:28;12.36;97.66
80290;SHT30;69592;44.804;-0.550;2024-01-27T02:58:54;12.29;97.59
80290;SHT30;69592;44.804;-0.550;2024-01-27T03:01:19;12.20;97.72
80290;SHT30;69592;44.804;-0.550;2024-01-27T03:03:44;12.19;97.61
80290;SHT30;69592;44.804;-0.550;2024-01-27T03:06:10;12.16;97.71
80290;SHT30;69592;44.804;-0.550;2024-01-27T03:08:36;12.10;97.68
80290;SHT30;69592;44.804;-0.550;2024-01-27T03:11:01;12.07;97.94
80290;SHT30;69592;44.804;-0.550;2024-01-27T03:13:26;11.92;97.90
80290;SHT30;69592;44.804;-0.550;2024-01-27T03:15:52;11.85;98.16
80290;SHT30;69592;44.804;-0.550;2024-01-27T03:18:17;11.69;98.32
80290;SHT30;69592;44.804;-0.550;2024-01-27T03:20:44;11.68;98.53
80290;SHT30;69592;44.804;-0.550;2024-01-27T03:23:09;11.69;98.50
80290;SHT30;69592;44.804;-0.550;2024-01-27T03:25:35;11.65;98.47
80290;SHT30;69592;44.804;-0.550;2024-01-27T03:28:00;11.72;98.54
80290;SHT30;69592;44.804;-0.550;2024-01-27T03:30:26;11.82;98.40
80290;SHT30;69592;44.804;-0.550;2024-01-27T03:32:51;11.61;98.67
80290;SHT30;69592;44.804;-0.550;2024-01-27T03:35:17;11.59;98.61
80290;SHT30;69592;44.804;-0.550;2024-01-27T03:37:42;11.45;98.57
80290;SHT30;69592;44.804;-0.550;2024-01-27T03:40:08;11.35;98.80
80290;SHT30;69592;44.804;-0.550;2024-01-27T03:42:34;11.36;98.84
80290;SHT30;69592;44.804;-0.550;2024-01-27T03:44:59;11.22;98.69
80290;SHT30;69592;44.804;-0.550;2024-01-27T03:47:25;11.35;98.84
80290;SHT30;69592;44.804;-0.550;2024-01-27T03:49:50;11.34;98.78
80290;SHT30;69592;44.804;-0.550;2024-01-27T03:52:16;11.19;98.87
80290;SHT30;69592;44.804;-0.550;2024-01-27T03:54:41;11.14;99.01
80290;SHT30;69592;44.804;-0.550;2024-01-27T03:57:06;11.07;98.98
80290;SHT30;69592;44.804;-0.550;2024-01-27T03:59:32;11.21;98.96
80290;SHT30;69592;44.804;-0.550;2024-01-27T04:01:57;11.31;98.86
80290;SHT30;69592;44.804;-0.550;2024-01-27T04:04:22;11.32;98.82
80290;SHT30;69592;44.804;-0.550;2024-01-27T04:06:49;11.32;98.65
80290;SHT30;69592;44.804;-0.550;2024-01-27T04:09:14;11.31;98.79
80290;SHT30;69592;44.804;-0.550;2024-01-27T04:11:41;11.36;98.75
80290;SHT30;69592;44.804;-0.550;2024-01-27T04:14:06;11.42;98.57
80290;SHT30;69592;44.804;-0.550;2024-01-27T04:16:32;11.51;98.67
80290;SHT30;69592;44.804;-0.550;2024-01-27T04:18:57;11.51;98.56
80290;SHT30;69592;44.804;-0.550;2024-01-27T04:21:22;11.54;98.45
80290;SHT30;69592;44.804;-0.550;2024-01-27T04:23:49;11.45;98.41
80290;SHT30;69592;44.804;-0.550;2024-01-27T04:26:14;11.48;98.60
80290;SHT30;69592;44.804;-0.550;2024-01-27T04:28:40;11.49;98.45
80290;SHT30;69592;44.804;-0.550;2024-01-27T04:31:05;11.46;98.49
80290;SHT30;69592;44.804;-0.550;2024-01-27T04:33:31;11.54;98.62
80290;SHT30;69592;44.804;-0.550;2024-01-27T04:35:57;11.58;98.56
80290;SHT30;69592;44.804;-0.550;2024-01-27T04:38:22;11.55;98.46
80290;SHT30;69592;44.804;-0.550;2024-01-27T04:40:49;11.52;98.57
80290;SHT30;69592;44.804;-0.550;2024-01-27T04:43:15;11.57;98.56
80290;SHT30;69592;44.804;-0.550;2024-01-27T04:45:41;11.55;98.49
80290;SHT30;69592;44.804;-0.550;2024-01-27T04:48:07;11.49;98.49
80290;SHT30;69592;44.804;-0.550;2024-01-27T04:50:32;11.36;98.56
80290;SHT30;69592;44.804;-0.550;2024-01-27T04:52:57;11.39;98.78
80290;SHT30;69592;44.804;-0.550;2024-01-27T04:55:23;11.28;98.69
80290;SHT30;69592;44.804;-0.550;2024-01-27T04:57:48;11.32;98.78
80290;SHT30;69592;44.804;-0.550;2024-01-27T05:00:14;11.39;98.71
80290;SHT30;69592;44.804;-0.550;2024-01-27T05:02:41;11.38;98.50
80290;SHT30;69592;44.804;-0.550;2024-01-27T05:05:07;11.35;98.74
80290;SHT30;69592;44.804;-0.550;2024-01-27T05:07:33;11.24;98.70
80290;SHT30;69592;44.804;-0.550;2024-01-27T05:09:58;11.12;98.90
80290;SHT30;69592;44.804;-0.550;2024-01-27T05:12:24;11.03;98.81
80290;SHT30;69592;44.804;-0.550;2024-01-27T05:14:49;10.97;98.88
80290;SHT30;69592;44.804;-0.550;2024-01-27T05:17:14;10.91;98.81
80290;SHT30;69592;44.804;-0.550;2024-01-27T05:19:40;10.88;98.77
80290;SHT30;69592;44.804;-0.550;2024-01-27T05:22:05;10.93;98.72
80290;SHT30;69592;44.804;-0.550;2024-01-27T05:24:31;10.84;98.69
80290;SHT30;69592;44.804;-0.550;2024-01-27T05:26:56;10.84;98.50
80290;SHT30;69592;44.804;-0.550;2024-01-27T05:29:22;10.78;98.75
80290;SHT30;69592;44.804;-0.550;2024-01-27T05:31:47;10.76;98.72
80290;SHT30;69592;44.804;-0.550;2024-01-27T05:34:13;10.77;98.52
80290;SHT30;69592;44.804;-0.550;2024-01-27T05:36:38;10.70;98.56
80290;SHT30;69592;44.804;-0.550;2024-01-27T05:39:04;10.59;98.68
80290;SHT30;69592;44.804;-0.550;2024-01-27T05:41:30;10.63;98.60
80290;SHT30;69592;44.804;-0.550;2024-01-27T05:43:56;10.70;98.51
80290;SHT30;69592;44.804;-0.550;2024-01-27T05:46:25;10.63;98.54
80290;SHT30;69592;44.804;-0.550;2024-01-27T05:48:50;10.54;98.56
80290;SHT30;69592;44.804;-0.550;2024-01-27T05:51:22;10.56;98.56
80290;SHT30;69592;44.804;-0.550;2024-01-27T05:53:49;10.39;98.71
80290;SHT30;69592;44.804;-0.550;2024-01-27T05:56:15;10.40;98.73
80290;SHT30;69592;44.804;-0.550;2024-01-27T05:58:42;10.54;98.67
80290;SHT30;69592;44.804;-0.550;2024-01-27T06:01:07;10.59;98.70
80290;SHT30;69592;44.804;-0.550;2024-01-27T06:03:34;10.52;98.51
80290;SHT30;69592;44.804;-0.550;2024-01-27T06:06:01;10.36;98.76
80290;SHT30;69592;44.804;-0.550;2024-01-27T06:08:26;10.20;98.68
80290;SHT30;69592;44.804;-0.550;2024-01-27T06:10:51;10.13;98.89
80290;SHT30;69592;44.804;-0.550;2024-01-27T06:13:17;10.10;98.93
80290;SHT30;69592;44.804;-0.550;2024-01-27T06:15:42;9.88;98.91
80290;SHT30;69592;44.804;-0.550;2024-01-27T06:18:07;10.01;99.12
80290;SHT30;69592;44.804;-0.550;2024-01-27T06:20:33;10.08;98.85
80290;SHT30;69592;44.804;-0.550;2024-01-27T06:22:58;9.99;98.82
80290;SHT30;69592;44.804;-0.550;2024-01-27T06:25:24;10.01;98.77
80290;SHT30;69592;44.804;-0.550;2024-01-27T06:27:49;10.09;98.86
80290;SHT30;69592;44.804;-0.550;2024-01-27T06:30:15;9.95;98.86
80290;SHT30;69592;44.804;-0.550;2024-01-27T06:32:41;9.96;98.81
80290;SHT30;69592;44.804;-0.550;2024-01-27T06:35:07;9.85;98.86
80290;SHT30;69592;44.804;-0.550;2024-01-27T06:37:32;10.01;98.79
80290;SHT30;69592;44.804;-0.550;2024-01-27T06:39:58;10.13;98.73
80290;SHT30;69592;44.804;-0.550;2024-01-27T06:42:23;10.03;98.51
80290;SHT30;69592;44.804;-0.550;2024-01-27T06:44:49;9.99;98.65
80290;SHT30;69592;44.804;-0.550;2024-01-27T06:47:16;9.95;98.59
80290;SHT30;69592;44.804;-0.550;2024-01-27T06:49:41;10.08;98.81
80290;SHT30;69592;44.804;-0.550;2024-01-27T06:52:07;10.05;98.51
80290;SHT30;69592;44.804;-0.550;2024-01-27T06:54:32;10.06;98.56
80290;SHT30;69592;44.804;-0.550;2024-01-27T06:56:59;10.17;98.71
80290;SHT30;69592;44.804;-0.550;2024-01-27T06:59:25;10.28;98.51
80290;SHT30;69592;44.804;-0.550;2024-01-27T07:01:50;10.35;98.41
80290;SHT30;69592;44.804;-0.550;2024-01-27T07:04:17;10.35;98.29
80290;SHT30;69592;44.804;-0.550;2024-01-27T07:06:43;10.35;98.23
80290;SHT30;69592;44.804;-0.550;2024-01-27T07:09:08;10.23;98.49
80290;SHT30;69592;44.804;-0.550;2024-01-27T07:11:37;10.17;98.65
80290;SHT30;69592;44.804;-0.550;2024-01-27T07:14:06;10.19;98.53
80290;SHT30;69592;44.804;-0.550;2024-01-27T07:16:34;10.17;98.42
80290;SHT30;69592;44.804;-0.550;2024-01-27T07:19:00;10.12;98.27
80290;SHT30;69592;44.804;-0.550;2024-01-27T07:21:25;10.09;98.59
80290;SHT30;69592;44.804;-0.550;2024-01-27T07:23:52;10.22;98.42
80290;SHT30;69592;44.804;-0.550;2024-01-27T07:26:19;10.26;98.48
80290;SHT30;69592;44.804;-0.550;2024-01-27T07:28:44;10.30;98.49
80290;SHT30;69592;44.804;-0.550;2024-01-27T07:31:09;10.36;98.31
80290;SHT30;69592;44.804;-0.550;2024-01-27T07:33:35;10.22;98.23
80290;SHT30;69592;44.804;-0.550;2024-01-27T07:36:02;10.16;98.35
80290;SHT30;69592;44.804;-0.550;2024-01-27T07:38:28;10.02;98.64
80290;SHT30;69592;44.804;-0.550;2024-01-27T07:40:53;9.96;98.54
80290;SHT30;69592;44.804;-0.550;2024-01-27T07:43:19;10.03;98.57
80290;SHT30;69592;44.804;-0.550;2024-01-27T07:45:44;9.99;98.62
80290;SHT30;69592;44.804;-0.550;2024-01-27T07:48:09;9.93;98.53
80290;SHT30;69592;44.804;-0.550;2024-01-27T07:50:35;9.88;98.61
80290;SHT30;69592;44.804;-0.550;2024-01-27T07:53:01;9.93;98.59
80290;SHT30;69592;44.804;-0.550;2024-01-27T07:55:26;9.99;98.43
80290;SHT30;69592;44.804;-0.550;2024-01-27T07:57:51;10.01;98.45
80290;SHT30;69592;44.804;-0.550;2024-01-27T08:00:17;9.91;98.39
80290;SHT30;69592;44.804;-0.550;2024-01-27T08:02:43;10.10;98.56
80290;SHT30;69592;44.804;-0.550;2024-01-27T08:05:13;10.15;98.44
80290;SHT30;69592;44.804;-0.550;2024-01-27T08:07:39;10.20;98.34
80290;SHT30;69592;44.804;-0.550;2024-01-27T08:10:27;10.17;98.41
80290;SHT30;69592;44.804;-0.550;2024-01-27T08:13:36;10.35;98.43
80290;SHT30;69592;44.804;-0.550;2024-01-27T08:16:24;10.30;98.38
80290;SHT30;69592;44.804;-0.550;2024-01-27T08:18:50;10.28;98.36
80290;SHT30;69592;44.804;-0.550;2024-01-27T08:21:16;10.25;98.46
80290;SHT30;69592;44.804;-0.550;2024-01-27T08:23:41;10.28;98.17
80290;SHT30;69592;44.804;-0.550;2024-01-27T08:26:07;10.29;98.16
80290;SHT30;69592;44.804;-0.550;2024-01-27T08:28:32;10.33;98.22
80290;SHT30;69592;44.804;-0.550;2024-01-27T08:31:11;10.20;98.13
80290;SHT30;69592;44.804;-0.550;2024-01-27T08:33:36;10.20;98.29
80290;SHT30;69592;44.804;-0.550;2024-01-27T08:36:01;10.28;98.48
80290;SHT30;69592;44.804;-0.550;2024-01-27T08:38:27;10.19;98.24
80290;SHT30;69592;44.804;-0.550;2024-01-27T08:40:52;10.23;98.18
80290;SHT30;69592;44.804;-0.550;2024-01-27T08:43:19;10.23;98.34
80290;SHT30;69592;44.804;-0.550;2024-01-27T08:45:44;9.96;98.43
80290;SHT30;69592;44.804;-0.550;2024-01-27T08:48:10;10.05;98.41
80290;SHT30;69592;44.804;-0.550;2024-01-27T08:50:37;10.02;98.36
80290;SHT30;69592;44.804;-0.550;2024-01-27T08:53:02;10.02;98.48
80290;SHT30;69592;44.804;-0.550;2024-01-27T08:55:28;10.02;98.42
80290;SHT30;69592;44.804;-0.550;2024-01-27T08:57:53;10.06;98.54
80290;SHT30;69592;44.804;-0.550;2024-01-27T09:00:19;10.23;98.64
80290;SHT30;69592;44.804;-0.550;2024-01-27T09:02:45;10.37;98.44
80290;SHT30;69592;44.804;-0.550;2024-01-27T09:05:10;10.32;98.18
80290;SHT30;69592;44.804;-0.550;2024-01-27T09:07:36;10.29;98.39
80290;SHT30;69592;44.804;-0.550;2024-01-27T09:10:02;10.26;98.32
80290;SHT30;69592;44.804;-0.550;2024-01-27T09:12:27;10.13;98.42
80290;SHT30;69592;44.804;-0.550;2024-01-27T09:14:53;10.19;98.47
80290;SHT30;69592;44.804;-0.550;2024-01-27T09:17:23;10.39;98.49
80290;SHT30;69592;44.804;-0.550;2024-01-27T09:19:48;10.26;98.16
80290;SHT30;69592;44.804;-0.550;2024-01-27T09:22:19;10.42;98.31
80290;SHT30;69592;44.804;-0.550;2024-01-27T09:24:45;10.17;98.36
80290;SHT30;69592;44.804;-0.550;2024-01-27T09:27:10;10.10;98.38
80290;SHT30;69592;44.804;-0.550;2024-01-27T09:29:42;10.17;98.42
80290;SHT30;69592;44.804;-0.550;2024-01-27T09:32:36;10.30;98.51
80290;SHT30;69592;44.804;-0.550;2024-01-27T09:36:15;10.45;98.30
80290;SHT30;69592;44.804;-0.550;2024-01-27T09:39:04;10.40;98.09
80290;SHT30;69592;44.804;-0.550;2024-01-27T09:41:51;10.30;98.23
80290;SHT30;69592;44.804;-0.550;2024-01-27T09:44:18;10.37;98.25
80290;SHT30;69592;44.804;-0.550;2024-01-27T09:46:49;10.43;98.17
80290;SHT30;69592;44.804;-0.550;2024-01-27T09:49:16;10.47;98.43
80290;SHT30;69592;44.804;-0.550;2024-01-27T09:51:48;10.53;98.14
80290;SHT30;69592;44.804;-0.550;2024-01-27T09:54:29;10.63;98.23
80290;SHT30;69592;44.804;-0.550;2024-01-27T09:56:56;10.54;98.18
80290;SHT30;69592;44.804;-0.550;2024-01-27T09:59:25;10.76;97.97
80290;SHT30;69592;44.804;-0.550;2024-01-27T10:01:52;10.68;97.89
80290;SHT30;69592;44.804;-0.550;2024-01-27T10:04:19;10.84;98.20
80290;SHT30;69592;44.804;-0.550;2024-01-27T10:06:49;10.87;97.88
80290;SHT30;69592;44.804;-0.550;2024-01-27T10:09:16;10.80;97.90
80290;SHT30;69592;44.804;-0.550;2024-01-27T10:11:46;10.84;98.15
80290;SHT30;69592;44.804;-0.550;2024-01-27T10:14:17;10.91;97.80
80290;SHT30;69592;44.804;-0.550;2024-01-27T10:16:44;10.85;97.84
80290;SHT30;69592;44.804;-0.550;2024-01-27T10:19:18;10.83;98.00
80290;SHT30;69592;44.804;-0.550;2024-01-27T10:21:47;10.94;97.82
80290;SHT30;69592;44.804;-0.550;2024-01-27T10:24:14;10.91;97.58
80290;SHT30;69592;44.804;-0.550;2024-01-27T10:26:41;11.00;97.63
80290;SHT30;69592;44.804;-0.550;2024-01-27T10:29:09;11.04;97.80
80290;SHT30;69592;44.804;-0.550;2024-01-27T10:31:35;11.17;97.30
80290;SHT30;69592;44.804;-0.550;2024-01-27T10:34:02;11.25;97.36
80290;SHT30;69592;44.804;-0.550;2024-01-27T10:36:39;11.27;97.43
80290;SHT30;69592;44.804;-0.550;2024-01-27T10:39:35;11.28;97.51
80290;SHT30;69592;44.804;-0.550;2024-01-27T10:42:02;11.36;97.45
80290;SHT30;69592;44.804;-0.550;2024-01-27T10:44:29;11.22;97.60
80290;SHT30;69592;44.804;-0.550;2024-01-27T10:46:56;11.25;97.46
80290;SHT30;69592;44.804;-0.550;2024-01-27T10:49:24;11.31;97.47
80290;SHT30;69592;44.804;-0.550;2024-01-27T10:51:56;11.38;97.26
80290;SHT30;69592;44.804;-0.550;2024-01-27T10:54:25;11.42;97.15
80290;SHT30;69592;44.804;-0.550;2024-01-27T10:57:08;11.36;97.59
80290;SHT30;69592;44.804;-0.550;2024-01-27T10:59:35;11.51;97.54
80290;SHT30;69592;44.804;-0.550;2024-01-27T11:02:03;11.55;97.18
80290;SHT30;69592;44.804;-0.550;2024-01-27T11:04:31;11.49;96.66
80290;SHT30;69592;44.804;-0.550;2024-01-27T11:07:02;11.42;97.26
80290;SHT30;69592;44.804;-0.550;2024-01-27T11:09:39;11.48;97.35
80290;SHT30;69592;44.804;-0.550;2024-01-27T11:12:25;11.57;97.21
80290;SHT30;69592;44.804;-0.550;2024-01-27T11:14:53;11.72;96.48
80290;SHT30;69592;44.804;-0.550;2024-01-27T11:17:41;11.90;96.54
80290;SHT30;69592;44.804;-0.550;2024-01-27T11:20:09;11.75;96.52
80290;SHT30;69592;44.804;-0.550;2024-01-27T11:22:41;11.86;96.77
80290;SHT30;69592;44.804;-0.550;2024-01-27T11:27:49;11.83;96.87
80290;SHT30;69592;44.804;-0.550;2024-01-27T11:33:10;12.03;96.95
80290;SHT30;69592;44.804;-0.550;2024-01-27T11:36:04;12.17;96.49
80290;SHT30;69592;44.804;-0.550;2024-01-27T11:38:31;12.37;95.96
80290;SHT30;69592;44.804;-0.550;2024-01-27T11:40:56;12.53;95.27
80290;SHT30;69592;44.804;-0.550;2024-01-27T11:43:22;12.55;95.33
80290;SHT30;69592;44.804;-0.550;2024-01-27T11:45:57;12.67;95.05
80290;SHT30;69592;44.804;-0.550;2024-01-27T11:48:23;12.92;94.86
80290;SHT30;69592;44.804;-0.550;2024-01-27T11:50:49;12.61;94.72
80290;SHT30;69592;44.804;-0.550;2024-01-27T11:53:14;12.73;94.84
80290;SHT30;69592;44.804;-0.550;2024-01-27T11:55:39;12.75;94.73
80290;SHT30;69592;44.804;-0.550;2024-01-27T11:58:05;12.63;95.12
80290;SHT30;69592;44.804;-0.550;2024-01-27T12:00:31;12.73;94.39
80290;SHT30;69592;44.804;-0.550;2024-01-27T12:02:56;12.74;95.18
80290;SHT30;69592;44.804;-0.550;2024-01-27T12:05:22;12.77;94.56
80290;SHT30;69592;44.804;-0.550;2024-01-27T12:07:47;12.71;94.38
80290;SHT30;69592;44.804;-0.550;2024-01-27T12:10:13;12.92;94.19
80290;SHT30;69592;44.804;-0.550;2024-01-27T12:12:39;12.73;94.55
80290;SHT30;69592;44.804;-0.550;2024-01-27T12:15:04;12.74;94.77
80290;SHT30;69592;44.804;-0.550;2024-01-27T12:17:30;12.71;94.75
80290;SHT30;69592;44.804;-0.550;2024-01-27T12:19:55;12.87;94.89
80290;SHT30;69592;44.804;-0.550;2024-01-27T12:22:28;12.96;94.49
80290;SHT30;69592;44.804;-0.550;2024-01-27T12:24:55;13.02;94.17
80290;SHT30;69592;44.804;-0.550;2024-01-27T12:27:22;13.20;93.94
80290;SHT30;69592;44.804;-0.550;2024-01-27T12:29:48;13.22;93.97
80290;SHT30;69592;44.804;-0.550;2024-01-27T12:32:18;13.23;93.49
80290;SHT30;69592;44.804;-0.550;2024-01-27T12:34:44;13.14;93.50
80290;SHT30;69592;44.804;-0.550;2024-01-27T12:37:32;13.25;93.55
80290;SHT30;69592;44.804;-0.550;2024-01-27T12:40:02;13.04;94.05
80290;SHT30;69592;44.804;-0.550;2024-01-27T12:42:28;13.19;94.23
80290;SHT30;69592;44.804;-0.550;2024-01-27T12:45:16;13.11;93.63
80290;SHT30;69592;44.804;-0.550;2024-01-27T12:48:05;12.91;93.75
80290;SHT30;69592;44.804;-0.550;2024-01-27T12:51:00;13.12;93.61
80290;SHT30;69592;44.804;-0.550;2024-01-27T12:53:25;13.08;94.04
80290;SHT30;69592;44.804;-0.550;2024-01-27T12:55:51;12.98;93.84
80290;SHT30;69592;44.804;-0.550;2024-01-27T12:58:16;13.02;93.73
80290;SHT30;69592;44.804;-0.550;2024-01-27T13:00:42;13.11;93.74
80290;SHT30;69592;44.804;-0.550;2024-01-27T13:03:07;12.85;93.95
80290;SHT30;69592;44.804;-0.550;2024-01-27T13:05:32;12.71;94.81
80290;SHT30;69592;44.804;-0.550;2024-01-27T13:07:59;12.68;95.04
80290;SHT30;69592;44.804;-0.550;2024-01-27T13:13:55;12.98;94.54
80290;SHT30;69592;44.804;-0.550;2024-01-27T13:16:57;13.08;94.05
80290;SHT30;69592;44.804;-0.550;2024-01-27T13:20:23;13.23;94.27
80290;SHT30;69592;44.804;-0.550;2024-01-27T13:23:14;13.36;92.99
80290;SHT30;69592;44.804;-0.550;2024-01-27T13:26:32;13.25;93.62
80290;SHT30;69592;44.804;-0.550;2024-01-27T13:29:40;13.25;93.54
80290;SHT30;69592;44.804;-0.550;2024-01-27T13:32:55;13.12;93.87
80290;SHT30;69592;44.804;-0.550;2024-01-27T13:36:13;13.02;93.42
80290;SHT30;69592;44.804;-0.550;2024-01-27T13:42:38;13.26;93.94
80290;SHT30;69592;44.804;-0.550;2024-01-27T13:45:16;13.38;93.49
80290;SHT30;69592;44.804;-0.550;2024-01-27T13:47:46;13.39;93.88
80290;SHT30;69592;44.804;-0.550;2024-01-27T13:50:38;13.40;93.40
80290;SHT30;69592;44.804;-0.550;2024-01-27T13:53:04;13.59;92.57
80290;SHT30;69592;44.804;-0.550;2024-01-27T13:55:32;13.77;92.30
80290;SHT30;69592;44.804;-0.550;2024-01-27T13:58:18;13.79;92.73
80290;SHT30;69592;44.804;-0.550;2024-01-27T14:00:44;14.03;92.80
80290;SHT30;69592;44.804;-0.550;2024-01-27T14:03:09;14.34;91.24
80290;SHT30;69592;44.804;-0.550;2024-01-27T14:05:35;14.34;91.17
80290;SHT30;69592;44.804;-0.550;2024-01-27T14:08:00;14.21;90.79
80290;SHT30;69592;44.804;-0.550;2024-01-27T14:10:26;14.13;91.09
80290;SHT30;69592;44.804;-0.550;2024-01-27T14:12:52;14.25;91.62
80290;SHT30;69592;44.804;-0.550;2024-01-27T14:15:20;14.11;90.61
80290;SHT30;69592;44.804;-0.550;2024-01-27T14:17:46;14.00;91.10
80290;SHT30;69592;44.804;-0.550;2024-01-27T14:20:11;13.66;92.05
80290;SHT30;69592;44.804;-0.550;2024-01-27T14:22:40;13.59;93.01
80290;SHT30;69592;44.804;-0.550;2024-01-27T14:25:06;13.63;92.82
80290;SHT30;69592;44.804;-0.550;2024-01-27T14:27:33;13.67;93.16
80290;SHT30;69592;44.804;-0.550;2024-01-27T14:29:58;13.60;92.51
80290;SHT30;69592;44.804;-0.550;2024-01-27T14:32:23;13.38;93.64
80290;SHT30;69592;44.804;-0.550;2024-01-27T14:34:49;13.26;93.56
80290;SHT30;69592;44.804;-0.550;2024-01-27T14:37:16;13.42;93.26
80290;SHT30;69592;44.804;-0.550;2024-01-27T14:39:45;13.29;92.97
80290;SHT30;69592;44.804;-0.550;2024-01-27T14:42:14;12.84;94.37
80290;SHT30;69592;44.804;-0.550;2024-01-27T14:44:42;12.80;94.17
80290;SHT30;69592;44.804;-0.550;2024-01-27T14:47:10;12.80;94.13
80290;SHT30;69592;44.804;-0.550;2024-01-27T14:49:36;12.75;94.52
80290;SHT30;69592;44.804;-0.550;2024-01-27T14:52:04;12.73;94.70
80290;SHT30;69592;44.804;-0.550;2024-01-27T14:54:30;12.65;95.18
80290;SHT30;69592;44.804;-0.550;2024-01-27T14:56:55;12.63;95.01
80290;SHT30;69592;44.804;-0.550;2024-01-27T14:59:31;12.84;95.12
80290;SHT30;69592;44.804;-0.550;2024-01-27T15:01:56;12.95;94.33
80290;SHT30;69592;44.804;-0.550;2024-01-27T15:04:25;12.98;94.53
80290;SHT30;69592;44.804;-0.550;2024-01-27T15:06:54;13.19;94.32
80290;SHT30;69592;44.804;-0.550;2024-01-27T15:09:22;13.16;93.66
80290;SHT30;69592;44.804;-0.550;2024-01-27T15:11:51;13.30;93.60
80290;SHT30;69592;44.804;-0.550;2024-01-27T15:14:24;13.23;93.33
80290;SHT30;69592;44.804;-0.550;2024-01-27T15:16:56;12.92;93.26
80290;SHT30;69592;44.804;-0.550;2024-01-27T15:19:22;12.80;94.28
80290;SHT30;69592;44.804;-0.550;2024-01-27T15:21:49;12.80;93.95
80290;SHT30;69592;44.804;-0.550;2024-01-27T15:24:14;12.71;94.20
80290;SHT30;69592;44.804;-0.550;2024-01-27T15:26:40;12.68;94.67
80290;SHT30;69592;44.804;-0.550;2024-01-27T15:29:06;12.69;94.54
80290;SHT30;69592;44.804;-0.550;2024-01-27T15:31:31;12.84;94.38
80290;SHT30;69592;44.804;-0.550;2024-01-27T15:33:56;12.58;94.37
80290;SHT30;69592;44.804;-0.550;2024-01-27T15:36:22;12.64;94.26
80290;SHT30;69592;44.804;-0.550;2024-01-27T15:38:47;12.61;94.54